Time;durP1;ratioP1;P1;durP2;ratioP2;P2;SDS_P1;SDS_P2;PMS_P1;PMS_P2;Temp;Humidity;BMP_temperature;BMP_pressure;BME280_temperature;BME280_humidity;BME280_pressure;Samples;Min_cycle;Max_cycle;Signal;HPM_P1;HPM_P2
2021/10/01 00:01:19;;;;;;;2.80;2.00;;;10.30;99.90;;;;;;5074616;28;20534;-79
2021/10/01 00:03:46;;;;;;;3.83;2.27;;;10.30;99.90;;;;;;5074737;28;20448;-79
2021/10/01 00:06:13;;;;;;;3.77;2.70;;;10.30;99.90;;;;;;5074495;28;20563;-79
2021/10/01 00:08:39;;;;;;;3.07;2.23;;;10.30;99.90;;;;;;5074883;28;20448;-80
2021/10/01 00:11:07;;;;;;;2.37;2.10;;;10.30;99.90;;;;;;5074712;28;20444;-79
2021/10/01 00:13:34;;;;;;;3.57;2.40;;;10.30;99.90;;;;;;5074586;28;20538;-80
2021/10/01 00:16:02;;;;;;;4.93;2.20;;;10.30;99.90;;;;;;5074622;28;20451;-79
2021/10/01 00:18:29;;;;;;;3.87;2.73;;;10.30;99.90;;;;;;5073898;28;20985;-80
2021/10/01 00:20:55;;;;;;;2.50;2.30;;;10.30;99.90;;;;;;5074884;28;20479;-81
2021/10/01 00:23:22;;;;;;;5.37;2.80;;;10.30;99.90;;;;;;5074517;28;20467;-82
2021/10/01 00:25:49;;;;;;;3.40;3.10;;;10.30;99.90;;;;;;5074263;28;20559;-81
2021/10/01 00:28:15;;;;;;;3.87;2.37;;;10.40;99.90;;;;;;5074529;28;20490;-81
2021/10/01 00:30:42;;;;;;;3.73;2.10;;;10.40;99.90;;;;;;5074672;28;20538;-81
2021/10/01 00:33:10;;;;;;;7.30;2.50;;;10.50;99.90;;;;;;5074352;28;20440;-81
2021/10/01 00:35:36;;;;;;;4.23;2.70;;;10.50;99.90;;;;;;5074701;28;20452;-81
2021/10/01 00:38:03;;;;;;;5.90;2.40;;;10.60;99.90;;;;;;5074491;28;20493;-81
2021/10/01 00:40:29;;;;;;;5.83;2.60;;;10.60;99.90;;;;;;5076082;28;20580;-81
2021/10/01 00:42:56;;;;;;;2.73;2.00;;;10.60;99.90;;;;;;5084800;28;20542;-81
2021/10/01 00:45:24;;;;;;;2.93;2.13;;;10.60;99.90;;;;;;5074142;28;20561;-81
2021/10/01 00:47:51;;;;;;;6.00;2.53;;;10.60;99.90;;;;;;5074367;28;20479;-81
2021/10/01 00:50:18;;;;;;;2.20;1.57;;;10.50;99.90;;;;;;5074470;28;20523;-81
2021/10/01 00:52:48;;;;;;;3.13;2.23;;;10.60;99.90;;;;;;5074310;28;20844;-79
2021/10/01 00:55:15;;;;;;;2.23;2.13;;;10.60;99.90;;;;;;5074132;28;20483;-80
2021/10/01 00:57:42;;;;;;;3.00;1.90;;;10.60;99.90;;;;;;5074457;28;20877;-80
2021/10/01 01:00:20;;;;;;;2.90;2.20;;;10.50;99.90;;;;;;5073831;28;20530;-81
2021/10/01 01:02:47;;;;;;;2.27;1.80;;;10.40;99.90;;;;;;5073870;28;21015;-80
2021/10/01 01:05:14;;;;;;;5.07;2.00;;;10.30;99.90;;;;;;5073650;28;20502;-81
2021/10/01 01:07:50;;;;;;;2.60;2.13;;;10.20;99.90;;;;;;5073722;28;20976;-81
2021/10/01 01:10:24;;;;;;;4.40;1.97;;;10.20;99.90;;;;;;5058196;28;20498;-81
2021/10/01 01:13:02;;;;;;;5.50;2.27;;;10.10;99.90;;;;;;5073899;28;20473;-81
2021/10/01 01:15:31;;;;;;;2.93;2.57;;;10.10;99.90;;;;;;5073754;28;20526;-81
2021/10/01 01:18:02;;;;;;;3.90;1.90;;;10.10;99.90;;;;;;5073508;28;20490;-81
2021/10/01 01:20:35;;;;;;;3.67;2.63;;;10.00;99.90;;;;;;5073722;28;20784;-81
2021/10/01 01:23:28;;;;;;;5.90;2.43;;;10.10;99.90;;;;;;5073307;28;20451;-82
2021/10/01 01:26:03;;;;;;;3.47;2.57;;;10.00;99.90;;;;;;5073393;28;20519;-81
2021/10/01 01:28:46;;;;;;;3.97;2.53;;;9.90;99.90;;;;;;5073577;28;20447;-81
2021/10/01 01:31:22;;;;;;;2.47;2.27;;;9.90;99.90;;;;;;5073263;28;20475;-81
2021/10/01 01:33:53;;;;;;;2.47;2.17;;;9.90;99.90;;;;;;5073498;28;20449;-82
2021/10/01 01:36:20;;;;;;;2.83;2.23;;;9.90;99.90;;;;;;5073360;28;20474;-82
2021/10/01 01:38:51;;;;;;;2.47;2.27;;;9.80;99.90;;;;;;5073225;28;20481;-81
2021/10/01 01:41:18;;;;;;;3.33;1.93;;;9.80;99.90;;;;;;5072971;28;20836;-81
2021/10/01 01:43:48;;;;;;;1.90;1.60;;;9.70;99.90;;;;;;5072881;28;20471;-83
2021/10/01 01:46:15;;;;;;;4.93;2.30;;;9.70;99.90;;;;;;5073170;28;20553;-82
2021/10/01 01:48:44;;;;;;;2.53;1.90;;;9.70;99.90;;;;;;5073172;28;20534;-81
2021/10/01 01:51:13;;;;;;;3.40;2.40;;;9.60;99.90;;;;;;5072996;28;20474;-81
2021/10/01 01:53:41;;;;;;;3.03;2.07;;;9.70;99.90;;;;;;5073094;28;20622;-81
2021/10/01 01:56:09;;;;;;;2.37;1.80;;;9.60;99.90;;;;;;5072737;28;20985;-81
2021/10/01 01:58:36;;;;;;;3.30;2.47;;;9.60;99.90;;;;;;5072778;28;20489;-81
2021/10/01 02:01:04;;;;;;;2.27;2.00;;;9.60;99.90;;;;;;5072600;28;20934;-81
2021/10/01 02:03:32;;;;;;;2.40;2.20;;;9.60;99.90;;;;;;5072900;28;20474;-81
2021/10/01 02:06:00;;;;;;;3.33;2.20;;;9.60;99.90;;;;;;5072633;28;20529;-80
2021/10/01 02:08:29;;;;;;;2.57;2.37;;;9.60;99.90;;;;;;5072387;28;20483;-80
2021/10/01 02:10:57;;;;;;;3.33;2.13;;;9.60;99.90;;;;;;5072322;28;20447;-80
2021/10/01 02:13:24;;;;;;;2.83;2.40;;;9.60;99.90;;;;;;5072613;28;20471;-80
2021/10/01 02:15:54;;;;;;;2.53;2.10;;;9.50;99.90;;;;;;5072671;28;20483;-81
2021/10/01 02:18:23;;;;;;;2.10;1.90;;;9.50;99.90;;;;;;5072688;28;20444;-81
2021/10/01 02:20:51;;;;;;;3.17;2.20;;;9.50;99.90;;;;;;5072980;28;20448;-81
2021/10/01 02:23:18;;;;;;;1.97;1.83;;;9.50;99.90;;;;;;5072454;28;20538;-81
2021/10/01 02:28:36;;;;;;;4.50;2.63;;;9.50;99.90;;;;;;5058560;28;20992;-81
2021/10/01 02:31:06;;;;;;;4.97;2.37;;;9.40;99.90;;;;;;5072439;28;20471;-81
2021/10/01 02:33:37;;;;;;;2.47;2.03;;;9.40;99.90;;;;;;5072343;28;20966;-81
2021/10/01 02:36:04;;;;;;;2.67;2.30;;;9.40;99.90;;;;;;5072146;28;20478;-81
2021/10/01 02:38:31;;;;;;;3.33;1.70;;;9.40;99.90;;;;;;5072479;28;20471;-80
2021/10/01 02:40:59;;;;;;;2.70;2.50;;;9.40;99.90;;;;;;5072111;28;20514;-81
2021/10/01 02:43:26;;;;;;;2.93;2.63;;;9.40;99.90;;;;;;5072279;28;20534;-80
2021/10/01 02:45:52;;;;;;;2.57;2.37;;;9.40;99.90;;;;;;5072209;28;20554;-81
2021/10/01 02:48:19;;;;;;;3.33;2.70;;;9.40;99.90;;;;;;5072161;28;20475;-81
2021/10/01 02:50:50;;;;;;;3.60;2.30;;;9.40;99.90;;;;;;5072507;28;20486;-81
2021/10/01 02:53:21;;;;;;;3.43;2.77;;;9.40;99.90;;;;;;5052097;28;20555;-81
2021/10/01 02:55:52;;;;;;;2.30;2.10;;;9.40;99.90;;;;;;5052298;28;20480;-81
2021/10/01 02:58:25;;;;;;;2.73;2.53;;;9.40;99.90;;;;;;5052149;28;20523;-81
2021/10/01 03:00:53;;;;;;;13.67;3.00;;;9.40;99.90;;;;;;5052024;28;20480;-81
2021/10/01 03:03:23;;;;;;;3.03;2.83;;;9.40;99.90;;;;;;5052033;28;20540;-81
2021/10/01 03:05:52;;;;;;;3.73;2.77;;;9.40;99.90;;;;;;5052061;28;20987;-81
2021/10/01 03:08:20;;;;;;;2.83;2.60;;;9.40;99.90;;;;;;5052114;28;20453;-81
2021/10/01 03:10:49;;;;;;;3.40;3.07;;;9.40;99.90;;;;;;5052127;28;20448;-81
2021/10/01 03:13:19;;;;;;;2.93;2.53;;;9.40;99.90;;;;;;5051814;28;20489;-81
2021/10/01 03:15:49;;;;;;;3.50;2.60;;;9.40;99.90;;;;;;5052180;28;20496;-82
2021/10/01 03:18:17;;;;;;;3.20;2.90;;;9.40;99.90;;;;;;5052051;28;20444;-81
2021/10/01 03:20:44;;;;;;;2.70;2.50;;;9.40;99.90;;;;;;5052048;28;20480;-81
2021/10/01 03:23:13;;;;;;;4.20;2.57;;;9.30;99.90;;;;;;5052001;28;20506;-81
2021/10/01 03:25:43;;;;;;;4.97;2.40;;;9.30;99.90;;;;;;5055250;28;20482;-81
2021/10/01 03:28:10;;;;;;;3.97;2.67;;;9.40;99.90;;;;;;5055421;28;20940;-81
2021/10/01 03:30:37;;;;;;;6.60;2.57;;;9.30;99.90;;;;;;5055840;28;20451;-81
2021/10/01 03:33:06;;;;;;;3.30;2.60;;;9.30;99.90;;;;;;5055587;28;20444;-81
2021/10/01 03:35:32;;;;;;;3.90;3.03;;;9.30;99.90;;;;;;5055585;28;20488;-81
2021/10/01 03:37:59;;;;;;;6.17;2.70;;;9.20;99.90;;;;;;5055377;28;20479;-81
2021/10/01 03:40:30;;;;;;;5.53;3.17;;;9.20;99.90;;;;;;5055151;28;20738;-81
2021/10/01 03:42:56;;;;;;;2.93;2.70;;;9.10;99.90;;;;;;5055377;28;21015;-81
2021/10/01 03:45:23;;;;;;;2.73;2.50;;;9.10;99.90;;;;;;5055291;28;21030;-81
2021/10/01 03:47:50;;;;;;;3.23;2.93;;;9.10;99.90;;;;;;5055294;28;20559;-81
2021/10/01 03:50:18;;;;;;;3.40;2.67;;;9.10;99.90;;;;;;5055395;28;20535;-81
2021/10/01 03:52:44;;;;;;;5.97;2.73;;;9.10;99.90;;;;;;5055331;28;20484;-81
2021/10/01 03:55:19;;;;;;;4.90;3.10;;;9.10;99.90;;;;;;5054875;28;21010;-81
2021/10/01 03:57:45;;;;;;;5.47;2.47;;;9.10;99.90;;;;;;5055298;28;20481;-81
2021/10/01 04:00:13;;;;;;;3.17;2.90;;;9.10;99.90;;;;;;5055394;28;20480;-80
2021/10/01 04:02:40;;;;;;;4.00;2.93;;;9.00;99.90;;;;;;5055216;28;20522;-80
2021/10/01 04:05:07;;;;;;;3.80;3.13;;;9.00;99.90;;;;;;5055019;28;20445;-80
2021/10/01 04:07:35;;;;;;;3.03;2.50;;;9.00;99.90;;;;;;5054918;28;20508;-79
2021/10/01 04:10:01;;;;;;;3.00;2.70;;;9.00;99.90;;;;;;5054988;28;20475;-81
2021/10/01 04:12:28;;;;;;;3.80;3.50;;;9.00;99.90;;;;;;5055052;28;20479;-80
2021/10/01 04:14:55;;;;;;;3.13;2.83;;;9.00;99.90;;;;;;5054965;28;20484;-80
2021/10/01 04:17:21;;;;;;;3.00;2.73;;;9.00;99.90;;;;;;5054227;28;20485;-80
2021/10/01 04:19:49;;;;;;;3.23;2.90;;;8.90;99.90;;;;;;5052792;28;20968;-80
2021/10/01 04:22:16;;;;;;;3.27;3.07;;;8.90;99.90;;;;;;5053848;28;20505;-81
2021/10/01 04:24:44;;;;;;;6.30;3.00;;;8.90;99.90;;;;;;5053726;28;20488;-80
2021/10/01 04:27:10;;;;;;;3.40;2.80;;;8.90;99.90;;;;;;5055009;28;20570;-80
2021/10/01 04:29:37;;;;;;;2.93;2.67;;;8.90;99.90;;;;;;5039594;28;20552;-80
2021/10/01 04:32:06;;;;;;;8.17;3.17;;;8.90;99.90;;;;;;5035154;28;20489;-80
2021/10/01 04:34:41;;;;;;;3.27;3.07;;;8.90;99.90;;;;;;5034599;28;21010;-80
2021/10/01 04:37:07;;;;;;;2.77;2.57;;;8.90;99.90;;;;;;5035161;28;20480;-81
2021/10/01 04:39:34;;;;;;;3.37;3.07;;;8.90;99.90;;;;;;5035059;28;20484;-80
2021/10/01 04:42:02;;;;;;;3.47;3.10;;;8.90;99.90;;;;;;5036971;28;20481;-80
2021/10/01 04:44:28;;;;;;;5.30;3.87;;;8.90;99.90;;;;;;5054792;28;20494;-80
2021/10/01 04:46:55;;;;;;;4.60;3.20;;;8.90;99.90;;;;;;5054741;28;20975;-80
2021/10/01 04:49:21;;;;;;;5.30;3.27;;;8.90;99.90;;;;;;5054591;28;20491;-80
2021/10/01 04:51:48;;;;;;;3.30;2.83;;;8.90;99.90;;;;;;5054691;28;20505;-80
2021/10/01 04:54:15;;;;;;;4.70;3.40;;;8.90;99.90;;;;;;5054722;28;20480;-80
2021/10/01 04:56:41;;;;;;;4.73;3.37;;;8.90;99.90;;;;;;5054684;28;20460;-80
2021/10/01 04:59:09;;;;;;;3.13;2.80;;;8.90;99.90;;;;;;5054524;28;20453;-80
2021/10/01 05:01:36;;;;;;;3.40;2.87;;;8.90;99.90;;;;;;5054404;28;20602;-80
2021/10/01 05:04:02;;;;;;;3.90;3.50;;;9.00;99.90;;;;;;5054403;28;20475;-80
2021/10/01 05:06:29;;;;;;;3.40;3.20;;;8.90;99.90;;;;;;5054356;28;20567;-80
2021/10/01 05:08:55;;;;;;;3.50;3.20;;;9.00;99.90;;;;;;5054426;28;20548;-80
2021/10/01 05:11:22;;;;;;;3.20;2.90;;;9.00;99.90;;;;;;5054330;28;20456;-81
2021/10/01 05:13:49;;;;;;;3.70;2.80;;;9.00;99.90;;;;;;5054371;28;20480;-80
2021/10/01 05:16:16;;;;;;;3.70;3.30;;;8.90;99.90;;;;;;5054161;28;20480;-80
2021/10/01 05:18:43;;;;;;;3.90;3.03;;;9.00;99.90;;;;;;5054103;28;20487;-80
2021/10/01 05:21:09;;;;;;;8.50;3.43;;;9.00;99.90;;;;;;5054153;28;20488;-80
2021/10/01 05:23:36;;;;;;;3.70;3.40;;;9.00;99.90;;;;;;5054222;28;20476;-80
2021/10/01 05:26:03;;;;;;;3.33;3.03;;;9.10;99.90;;;;;;5053950;28;20452;-80
2021/10/01 05:28:29;;;;;;;4.67;2.97;;;9.10;99.90;;;;;;5053775;28;20527;-80
2021/10/01 05:30:56;;;;;;;7.10;3.70;;;9.10;99.90;;;;;;5053805;28;20491;-80
2021/10/01 05:33:24;;;;;;;5.03;3.70;;;9.20;99.90;;;;;;5054014;28;20539;-80
2021/10/01 05:35:51;;;;;;;3.00;2.80;;;9.30;99.90;;;;;;5053963;28;20543;-79
2021/10/01 05:38:18;;;;;;;3.10;2.80;;;9.30;99.90;;;;;;5053930;28;20574;-79
2021/10/01 05:40:44;;;;;;;7.93;3.20;;;9.40;99.90;;;;;;5053451;28;20481;-79
2021/10/01 05:43:11;;;;;;;7.17;3.67;;;9.40;99.90;;;;;;5053540;28;20531;-79
2021/10/01 05:45:40;;;;;;;4.07;3.30;;;9.40;99.90;;;;;;5053200;28;20910;-79
2021/10/01 05:48:07;;;;;;;4.00;2.97;;;9.50;99.90;;;;;;5053205;28;20575;-79
2021/10/01 05:50:40;;;;;;;3.93;2.50;;;9.50;99.90;;;;;;5053598;28;20448;-80
2021/10/01 05:53:13;;;;;;;3.20;3.00;;;9.60;99.90;;;;;;5053569;28;20531;-79
2021/10/01 05:55:41;;;;;;;3.70;3.40;;;9.60;99.90;;;;;;5053420;28;20463;-79
2021/10/01 05:58:08;;;;;;;4.17;3.53;;;9.70;99.90;;;;;;5053353;28;20448;-80
2021/10/01 06:00:35;;;;;;;4.23;3.07;;;9.70;99.90;;;;;;5053464;28;20448;-80
2021/10/01 06:03:01;;;;;;;3.83;2.80;;;9.80;99.90;;;;;;5053434;28;21014;-80
2021/10/01 06:05:28;;;;;;;4.73;2.93;;;9.90;99.90;;;;;;5053172;28;20939;-80
2021/10/01 06:07:56;;;;;;;3.13;2.87;;;9.90;99.90;;;;;;5053135;28;20574;-79
2021/10/01 06:10:22;;;;;;;2.90;2.60;;;10.00;99.90;;;;;;5051266;28;20506;-79
2021/10/01 06:12:49;;;;;;;6.43;2.80;;;10.10;99.90;;;;;;5052380;28;20476;-79
2021/10/01 06:15:17;;;;;;;2.70;2.47;;;10.10;99.90;;;;;;5052659;28;20857;-78
2021/10/01 06:17:43;;;;;;;5.63;2.90;;;10.20;99.90;;;;;;5052637;28;20453;-78
2021/10/01 06:20:10;;;;;;;3.23;2.93;;;10.30;99.90;;;;;;5052225;28;20962;-78
2021/10/01 06:22:38;;;;;;;4.50;3.03;;;10.40;99.90;;;;;;5052441;28;20847;-78
2021/10/01 06:25:07;;;;;;;4.33;3.50;;;10.50;99.90;;;;;;5052203;28;20476;-78
2021/10/01 06:27:34;;;;;;;3.40;2.93;;;10.60;99.90;;;;;;5049526;28;20475;-78
2021/10/01 06:30:00;;;;;;;3.50;2.97;;;10.80;99.90;;;;;;5051930;28;20452;-78
2021/10/01 06:32:32;;;;;;;2.77;2.57;;;11.00;99.90;;;;;;5052313;28;20484;-78
2021/10/01 06:34:58;;;;;;;2.93;2.73;;;11.10;99.90;;;;;;5052334;28;20444;-78
2021/10/01 06:37:25;;;;;;;3.13;2.93;;;11.30;99.90;;;;;;5052141;28;20484;-78
2021/10/01 06:39:51;;;;;;;3.00;2.77;;;11.50;99.90;;;;;;5052102;28;20543;-78
2021/10/01 06:42:20;;;;;;;2.70;2.50;;;11.70;99.90;;;;;;5051986;28;20506;-78
2021/10/01 06:44:49;;;;;;;2.77;2.57;;;11.90;99.90;;;;;;5052043;28;20812;-78
2021/10/01 06:47:19;;;;;;;3.70;2.50;;;12.10;99.90;;;;;;5052071;28;20506;-77
2021/10/01 06:49:55;;;;;;;2.20;2.00;;;12.30;99.90;;;;;;5051669;28;20445;-77
2021/10/01 07:36:46;;;;;;;1.83;1.70;;;13.60;99.90;;;;;;5054129;28;20436;-78
2021/10/01 08:20:41;;;;;;;1.20;1.10;;;14.10;99.90;;;;;;5055359;28;20431;-77
2021/10/01 08:23:08;;;;;;;1.30;1.13;;;14.20;99.90;;;;;;5055284;28;20452;-77
2021/10/01 08:25:35;;;;;;;1.57;1.47;;;14.30;99.90;;;;;;5055236;28;20499;-77
2021/10/01 08:28:03;;;;;;;1.60;1.37;;;14.40;99.90;;;;;;5054973;28;20978;-77
2021/10/01 08:30:29;;;;;;;1.70;1.27;;;14.40;99.90;;;;;;5055357;28;20484;-77
2021/10/01 08:32:56;;;;;;;1.60;1.27;;;14.50;99.90;;;;;;5054345;28;21020;-77
2021/10/01 08:35:24;;;;;;;3.00;1.30;;;14.50;99.90;;;;;;5054433;28;20477;-77
2021/10/01 08:37:54;;;;;;;1.60;1.33;;;14.60;99.90;;;;;;5054328;28;20451;-77
2021/10/01 08:40:23;;;;;;;3.17;1.70;;;14.70;99.90;;;;;;5054235;28;20452;-77
2021/10/01 08:42:52;;;;;;;2.40;1.30;;;14.70;99.90;;;;;;5054327;28;20455;-77
2021/10/01 08:45:21;;;;;;;2.20;1.47;;;14.70;99.90;;;;;;5054497;28;20532;-77
2021/10/01 08:47:48;;;;;;;4.00;1.47;;;14.80;99.90;;;;;;5051841;28;20891;-77
2021/10/01 08:50:18;;;;;;;4.00;1.50;;;14.80;99.90;;;;;;5054327;28;20445;-77
2021/10/01 08:52:45;;;;;;;3.37;1.37;;;14.80;99.90;;;;;;5054038;28;20803;-78
2021/10/01 08:55:14;;;;;;;7.63;1.63;;;14.90;99.90;;;;;;5053986;28;20890;-79
2021/10/01 08:57:42;;;;;;;1.40;1.30;;;14.90;99.90;;;;;;5054475;28;20449;-77
2021/10/01 09:00:11;;;;;;;3.50;1.30;;;14.90;99.90;;;;;;5053958;28;20482;-77
2021/10/01 09:02:38;;;;;;;2.10;1.20;;;15.00;99.90;;;;;;5050995;28;20476;-77
2021/10/01 09:05:06;;;;;;;1.70;1.60;;;15.10;99.90;;;;;;5053906;28;20448;-77
2021/10/01 09:07:32;;;;;;;1.40;1.30;;;15.10;99.90;;;;;;5051592;28;20559;-77
2021/10/01 09:09:59;;;;;;;1.50;1.10;;;15.20;99.90;;;;;;5052946;28;20494;-77
2021/10/01 09:12:28;;;;;;;4.00;1.20;;;15.30;99.90;;;;;;5052931;28;20535;-77
2021/10/01 09:14:57;;;;;;;2.30;1.20;;;15.40;99.90;;;;;;5052972;28;20484;-77
2021/10/01 09:17:26;;;;;;;4.07;1.27;;;15.50;99.90;;;;;;5050304;28;20475;-77
2021/10/01 09:19:54;;;;;;;1.43;1.20;;;15.60;99.90;;;;;;5052923;28;20490;-77
2021/10/01 09:22:29;;;;;;;2.83;1.27;;;15.70;99.90;;;;;;5049614;28;20460;-77
2021/10/01 09:25:09;;;;;;;1.10;1.00;;;15.80;99.90;;;;;;5053734;28;20535;-77
2021/10/01 09:27:41;;;;;;;2.70;1.27;;;15.90;99.90;;;;;;5052725;28;20483;-77
2021/10/01 09:30:09;;;;;;;2.10;1.30;;;16.00;99.90;;;;;;5053908;28;20453;-77
2021/10/01 09:32:36;;;;;;;1.90;1.20;;;16.10;99.90;;;;;;5053196;28;20474;-77
2021/10/01 09:35:11;;;;;;;2.00;1.50;;;16.10;99.90;;;;;;5054024;28;20535;-77
2021/10/01 09:37:38;;;;;;;1.40;1.30;;;16.20;99.90;;;;;;5046874;28;20542;-77
2021/10/01 09:40:05;;;;;;;7.23;1.30;;;16.30;99.90;;;;;;5040553;28;20603;-78
2021/10/01 09:42:39;;;;;;;1.40;1.23;;;16.40;99.90;;;;;;5048054;28;20472;-77
2021/10/01 09:45:09;;;;;;;1.03;0.90;;;16.40;99.90;;;;;;5053336;28;20444;-77
2021/10/01 09:47:38;;;;;;;1.70;1.30;;;16.50;99.90;;;;;;5053448;28;20549;-77
2021/10/01 09:50:08;;;;;;;1.67;1.17;;;16.50;99.90;;;;;;5053624;28;20453;-77
2021/10/01 09:52:42;;;;;;;1.10;0.90;;;16.50;99.90;;;;;;5053268;28;20543;-77
2021/10/01 09:55:10;;;;;;;4.20;1.17;;;16.50;99.90;;;;;;5039571;28;20521;-77
2021/10/01 09:57:38;;;;;;;2.80;1.20;;;16.50;99.90;;;;;;5050075;28;20519;-77
2021/10/01 10:00:08;;;;;;;1.67;1.20;;;16.50;99.90;;;;;;5049863;28;20448;-77
2021/10/01 10:02:37;;;;;;;2.60;1.10;;;16.40;99.90;;;;;;5049125;28;20444;-77
2021/10/01 10:05:05;;;;;;;1.37;1.20;;;16.40;99.90;;;;;;5051525;28;20448;-77
2021/10/01 10:07:39;;;;;;;2.13;1.10;;;16.30;99.90;;;;;;5048702;28;20480;-77
2021/10/01 10:10:08;;;;;;;1.43;1.30;;;16.30;99.90;;;;;;5051233;28;20448;-77
2021/10/01 10:12:37;;;;;;;1.67;1.10;;;16.30;99.90;;;;;;5052842;28;20868;-77
2021/10/01 10:15:11;;;;;;;1.20;0.93;;;16.20;99.90;;;;;;5053086;28;20533;-77
2021/10/01 10:17:47;;;;;;;1.03;0.90;;;16.30;99.90;;;;;;5053117;28;20452;-77
2021/10/01 10:20:13;;;;;;;1.27;1.17;;;16.30;99.90;;;;;;5053108;28;20471;-77
2021/10/01 10:22:40;;;;;;;4.17;1.30;;;16.30;99.90;;;;;;5052609;28;20448;-77
2021/10/01 10:25:07;;;;;;;5.07;1.33;;;16.20;99.90;;;;;;5053093;28;20476;-77
2021/10/01 10:27:34;;;;;;;2.57;1.37;;;16.30;99.90;;;;;;5053027;28;20531;-77
2021/10/01 10:30:00;;;;;;;1.97;0.90;;;16.20;99.90;;;;;;5052928;28;20452;-77
2021/10/01 10:32:32;;;;;;;3.03;1.23;;;16.20;99.90;;;;;;5052602;28;20452;-77
2021/10/01 10:35:00;;;;;;;1.63;0.90;;;16.20;99.90;;;;;;5052726;28;20449;-76
2021/10/01 10:37:37;;;;;;;5.47;1.23;;;16.20;99.90;;;;;;5052495;28;20480;-75
2021/10/01 10:40:06;;;;;;;2.03;1.37;;;16.10;99.90;;;;;;5052645;28;20868;-75
2021/10/01 10:42:35;;;;;;;1.47;1.10;;;16.20;99.90;;;;;;5052493;28;20475;-75
2021/10/01 10:45:10;;;;;;;1.40;0.90;;;16.20;99.90;;;;;;5052566;28;20450;-75
2021/10/01 10:47:54;;;;;;;1.40;1.03;;;16.30;99.90;;;;;;5052492;28;20475;-76
2021/10/01 10:50:46;;;;;;;2.17;0.97;;;16.20;99.90;;;;;;5051743;28;20576;-75
2021/10/01 10:53:21;;;;;;;1.10;1.00;;;16.30;99.90;;;;;;5052322;28;20494;-75
2021/10/01 10:56:16;;;;;;;1.37;1.10;;;16.20;99.90;;;;;;5052441;28;20479;-77
2021/10/01 10:58:50;;;;;;;3.10;1.10;;;16.30;99.90;;;;;;5046974;28;20850;-75
2021/10/01 11:01:29;;;;;;;1.10;1.00;;;16.30;99.90;;;;;;5052587;28;20448;-75
2021/10/01 11:04:30;;;;;;;1.90;1.00;;;16.30;99.90;;;;;;5052580;28;20939;-75
2021/10/01 11:06:59;;;;;;;1.60;0.90;;;16.40;99.90;;;;;;5052492;28;20527;-75
2021/10/01 11:09:30;;;;;;;2.90;0.90;;;16.40;99.90;;;;;;5051803;28;20575;-76
2021/10/01 11:12:00;;;;;;;3.37;1.30;;;16.40;99.90;;;;;;5051877;28;20456;-76
2021/10/01 11:14:29;;;;;;;2.13;1.23;;;16.50;99.90;;;;;;5049710;28;20540;-76
2021/10/01 11:17:16;;;;;;;1.50;1.40;;;16.50;99.90;;;;;;5052325;28;21026;-76
2021/10/01 11:19:45;;;;;;;1.53;0.90;;;16.60;99.90;;;;;;5052297;28;20543;-76
2021/10/01 11:22:31;;;;;;;1.00;0.80;;;16.70;99.90;;;;;;5051812;28;20539;-76
2021/10/01 11:25:00;;;;;;;1.60;0.87;;;16.70;99.90;;;;;;5052213;28;20448;-77
2021/10/01 11:27:27;;;;;;;1.20;0.90;;;16.80;99.90;;;;;;5052123;28;20539;-77
2021/10/01 11:29:54;;;;;;;2.03;0.80;;;16.80;99.90;;;;;;5050053;28;20522;-80
2021/10/01 11:32:22;;;;;;;1.00;0.90;;;16.90;99.90;;;;;;5051284;28;20480;-77
2021/10/01 11:34:51;;;;;;;1.20;0.90;;;16.90;99.90;;;;;;5051749;28;20503;-77
2021/10/01 11:37:23;;;;;;;1.30;1.00;;;17.10;99.90;;;;;;5050530;28;20527;-77
2021/10/01 11:39:51;;;;;;;1.13;0.70;;;17.10;99.90;;;;;;5051683;28;20483;-79
2021/10/01 11:42:23;;;;;;;1.73;1.13;;;17.20;99.90;;;;;;5052119;28;20521;-77
2021/10/01 11:44:49;;;;;;;5.70;1.13;;;17.20;99.90;;;;;;5052944;28;20500;-78
2021/10/01 11:47:16;;;;;;;1.30;1.10;;;17.30;99.90;;;;;;5055729;28;20476;-77
2021/10/01 11:49:50;;;;;;;0.90;0.77;;;17.40;99.90;;;;;;5055453;28;20511;-77
2021/10/01 11:52:17;;;;;;;1.20;1.03;;;17.40;99.90;;;;;;5055544;28;20539;-78
2021/10/01 11:54:51;;;;;;;2.50;1.07;;;17.40;99.90;;;;;;5055529;28;20453;-79
2021/10/01 11:57:18;;;;;;;1.63;1.13;;;17.40;99.90;;;;;;5055944;28;21186;-88
2021/10/01 11:59:50;;;;;;;1.63;1.20;;;17.40;99.90;;;;;;5055573;28;20539;-77
2021/10/01 12:02:37;;;;;;;1.07;0.97;;;17.40;99.90;;;;;;5055655;28;20484;-77
2021/10/01 12:05:30;;;;;;;1.60;0.90;;;17.40;99.90;;;;;;5054168;28;20455;-78
2021/10/01 12:07:58;;;;;;;1.47;0.83;;;17.30;99.90;;;;;;5055526;28;20480;-78
2021/10/01 12:10:28;;;;;;;6.93;1.30;;;17.30;99.90;;;;;;5055476;28;20506;-77
2021/10/01 12:13:10;;;;;;;2.60;0.90;;;17.30;99.90;;;;;;5055060;28;20487;-79
2021/10/01 12:15:39;;;;;;;2.13;0.80;;;17.30;99.90;;;;;;5055480;28;20449;-78
2021/10/01 12:18:07;;;;;;;1.90;1.07;;;17.30;99.90;;;;;;5055329;28;20874;-78
2021/10/01 12:20:47;;;;;;;4.83;1.10;;;17.20;99.90;;;;;;5055253;28;20487;-77
2021/10/01 12:23:19;;;;;;;0.80;0.70;;;17.20;99.90;;;;;;5055030;28;20487;-78
2021/10/01 12:25:47;;;;;;;0.93;0.80;;;17.20;99.90;;;;;;5054887;28;20540;-78
2021/10/01 12:28:14;;;;;;;1.17;0.87;;;17.20;99.90;;;;;;5055448;28;20487;-77
2021/10/01 12:30:40;;;;;;;1.23;0.90;;;17.20;99.90;;;;;;5035344;28;20532;-77
2021/10/01 12:33:07;;;;;;;2.77;1.37;;;17.20;99.90;;;;;;5034081;28;20536;-77
2021/10/01 12:35:34;;;;;;;1.47;0.90;;;17.10;99.90;;;;;;5033867;28;20547;-77
2021/10/01 12:38:00;;;;;;;4.67;0.90;;;17.00;99.90;;;;;;5033952;28;20560;-77
2021/10/01 12:40:27;;;;;;;1.70;0.90;;;17.00;99.90;;;;;;5034070;28;20548;-77
2021/10/01 12:42:55;;;;;;;2.60;1.10;;;17.00;99.90;;;;;;5044593;28;20536;-77
2021/10/01 12:45:22;;;;;;;5.90;0.90;;;17.00;99.90;;;;;;5054917;28;20484;-77
2021/10/01 12:47:50;;;;;;;1.43;0.90;;;16.90;99.90;;;;;;5054776;28;20447;-77
2021/10/01 12:50:18;;;;;;;1.00;0.90;;;16.80;99.90;;;;;;5054547;28;20741;-77
2021/10/01 12:52:54;;;;;;;3.23;1.13;;;16.80;99.90;;;;;;5054483;28;20541;-77
2021/10/01 12:55:21;;;;;;;4.30;0.93;;;16.80;99.90;;;;;;5054482;28;20535;-77
2021/10/01 12:57:49;;;;;;;1.90;1.17;;;16.80;99.90;;;;;;5054505;28;20531;-77
2021/10/01 13:00:21;;;;;;;3.27;1.47;;;16.70;99.90;;;;;;5054458;28;20448;-77
2021/10/01 13:02:49;;;;;;;1.33;0.93;;;16.70;99.90;;;;;;5054472;28;20488;-77
2021/10/01 13:05:21;;;;;;;1.43;0.70;;;16.70;99.90;;;;;;5054593;28;20860;-76
2021/10/01 13:07:49;;;;;;;1.97;0.87;;;16.70;99.90;;;;;;5054398;28;20449;-77
2021/10/01 13:10:27;;;;;;;1.97;1.17;;;16.70;99.90;;;;;;5054311;28;20495;-77
2021/10/01 13:13:01;;;;;;;2.17;1.07;;;16.60;99.90;;;;;;5054427;28;20875;-77
2021/10/01 13:15:38;;;;;;;0.90;0.80;;;16.60;99.90;;;;;;5053983;28;20502;-76
2021/10/01 13:18:26;;;;;;;1.20;1.00;;;16.60;99.90;;;;;;5054403;28;20490;-77
2021/10/01 13:20:56;;;;;;;1.20;0.83;;;16.50;99.90;;;;;;5054253;28;20456;-76
2021/10/01 13:23:34;;;;;;;4.03;1.23;;;16.50;99.90;;;;;;5054145;28;20942;-77
2021/10/01 13:26:04;;;;;;;1.20;0.90;;;16.50;99.90;;;;;;5053887;28;20452;-76
2021/10/01 13:28:32;;;;;;;2.00;1.00;;;16.50;99.90;;;;;;5053972;28;20498;-77
2021/10/01 13:31:00;;;;;;;3.27;0.87;;;16.60;99.90;;;;;;5054025;28;20456;-76
2021/10/01 13:33:27;;;;;;;1.30;1.20;;;16.60;99.90;;;;;;5053907;28;20589;-77
2021/10/01 13:35:55;;;;;;;1.00;0.80;;;16.60;99.90;;;;;;5053863;28;20487;-79
2021/10/01 13:38:26;;;;;;;1.53;0.90;;;16.60;99.90;;;;;;5054026;28;20921;-76
2021/10/01 13:40:53;;;;;;;1.00;0.90;;;16.50;99.90;;;;;;5053622;28;20507;-76
2021/10/01 13:43:20;;;;;;;2.67;0.90;;;16.50;99.90;;;;;;5053708;28;20555;-76
2021/10/01 13:45:46;;;;;;;1.40;0.80;;;16.50;99.90;;;;;;5053728;28;20569;-77
2021/10/01 13:48:14;;;;;;;8.93;1.10;;;16.50;99.90;;;;;;5053457;28;20554;-77
2021/10/01 13:50:42;;;;;;;1.10;0.87;;;16.40;99.90;;;;;;5042662;28;21072;-77
2021/10/01 13:53:08;;;;;;;2.70;1.00;;;16.40;99.90;;;;;;5046918;28;20456;-77
2021/10/01 13:55:35;;;;;;;1.70;1.10;;;16.40;99.90;;;;;;5046809;28;20985;-77
2021/10/01 13:58:01;;;;;;;2.83;0.77;;;16.40;99.90;;;;;;5053020;28;20534;-77
2021/10/01 14:00:28;;;;;;;1.20;0.80;;;16.40;99.90;;;;;;5052857;28;20476;-76
2021/10/01 14:02:55;;;;;;;1.10;0.90;;;16.40;99.90;;;;;;5052979;28;20483;-77
2021/10/01 14:05:22;;;;;;;1.77;0.80;;;16.40;99.90;;;;;;5052775;28;20539;-78
2021/10/01 14:07:49;;;;;;;1.10;0.83;;;16.40;99.90;;;;;;5052094;28;20895;-77
2021/10/01 14:10:19;;;;;;;3.23;0.97;;;16.40;99.90;;;;;;5052444;28;21080;-77
2021/10/01 14:12:47;;;;;;;4.07;1.57;;;16.30;99.90;;;;;;5052167;28;20894;-76
2021/10/01 14:15:15;;;;;;;1.23;1.13;;;16.30;99.90;;;;;;5046029;28;20856;-77
2021/10/01 14:17:42;;;;;;;0.77;0.70;;;16.20;99.90;;;;;;5050722;28;20524;-77
2021/10/01 14:20:11;;;;;;;1.10;0.80;;;16.30;99.90;;;;;;5052099;28;20475;-77
2021/10/01 14:22:39;;;;;;;1.60;0.77;;;16.30;99.90;;;;;;5052702;28;20476;-80
2021/10/01 14:25:07;;;;;;;0.87;0.80;;;16.20;99.90;;;;;;5052315;28;20532;-78
2021/10/01 14:27:34;;;;;;;1.30;1.10;;;16.20;99.90;;;;;;5050697;28;21018;-78
2021/10/01 14:30:01;;;;;;;1.47;0.90;;;16.20;99.90;;;;;;5051780;28;20472;-78